Time;durP1;ratioP1;P1;durP2;ratioP2;P2;SDS_P1;SDS_P2;PMS_P1;PMS_P2;Temp;Humidity;BMP_temperature;BMP_pressure;BME280_temperature;BME280_humidity;BME280_pressure;Samples;Min_cycle;Max_cycle;Signal;HPM_P1;HPM_P2
2021/12/02 00:00:58;;;;;;;2.20;1.13;;;;;;;-0.34;100.00;98698.78;4895692;29;20227;-76
2021/12/02 00:03:24;;;;;;;1.55;0.90;;;;;;;-0.40;100.00;98699.81;4896773;29;20187;-77
2021/12/02 00:05:49;;;;;;;2.10;1.15;;;;;;;-0.31;100.00;98710.06;4897395;29;20199;-77
2021/12/02 00:08:15;;;;;;;1.33;1.10;;;;;;;-0.22;100.00;98714.22;4898331;29;20176;-77
2021/12/02 00:10:41;;;;;;;1.38;1.00;;;;;;;-0.22;100.00;98719.47;4880567;29;20209;-77
2021/12/02 00:13:07;;;;;;;2.50;1.10;;;;;;;-0.25;100.00;98730.97;4896553;29;20557;-77
2021/12/02 00:15:52;;;;;;;5.60;1.45;;;;;;;-0.27;99.53;98737.16;4897743;29;20172;-77
2021/12/02 00:23:35;;;;;;;4.70;1.20;;;;;;;-0.34;98.60;98761.94;4880710;29;20194;-77
2021/12/02 00:26:07;;;;;;;2.05;0.90;;;;;;;-0.30;98.60;98763.59;4881996;29;20328;-78
2021/12/02 00:28:36;;;;;;;3.15;1.30;;;;;;;-0.44;98.72;98777.97;4882721;29;20244;-78
2021/12/02 00:31:02;;;;;;;4.00;1.27;;;;;;;-0.46;99.42;98782.41;4881631;29;20709;-78
2021/12/02 00:33:31;;;;;;;0.75;0.75;;;;;;;-0.36;99.52;98779.53;4898687;29;20181;-78
2021/12/02 00:35:57;;;;;;;2.75;1.38;;;;;;;-0.31;99.69;98799.53;4882145;29;20616;-78
2021/12/02 00:38:24;;;;;;;1.60;1.20;;;;;;;-0.27;98.88;98789.78;4898464;29;20192;-78
2021/12/02 00:40:50;;;;;;;2.53;1.00;;;;;;;-0.28;99.34;98812.63;4881640;29;20694;-78
2021/12/02 00:43:16;;;;;;;2.78;1.00;;;;;;;-0.26;98.96;98816.06;4897020;29;20228;-78
2021/12/02 00:45:44;;;;;;;2.15;1.13;;;;;;;-0.37;99.27;98825.16;4898750;29;20189;-78
2021/12/02 00:48:11;;;;;;;1.23;0.90;;;;;;;-0.24;99.40;98823.91;4898348;29;20529;-78
2021/12/02 00:50:38;;;;;;;4.43;1.00;;;;;;;-0.31;98.99;98839.00;4898554;29;20204;-78
2021/12/02 00:53:06;;;;;;;4.10;1.00;;;;;;;-0.33;99.29;98835.56;4881724;29;20596;-78
2021/12/02 00:55:36;;;;;;;1.05;0.90;;;;;;;-0.36;98.43;98847.94;4897045;29;20259;-78
2021/12/02 00:58:02;;;;;;;1.15;0.93;;;;;;;-0.26;99.28;98852.06;4896089;29;20200;-78
2021/12/02 01:00:28;;;;;;;2.22;0.73;;;;;;;-0.32;97.88;98850.44;4897384;29;20244;-78
2021/12/02 01:02:54;;;;;;;2.60;1.02;;;;;;;-0.26;97.43;98862.59;4897247;29;20275;-77
2021/12/02 01:05:20;;;;;;;2.58;0.93;;;;;;;-0.11;96.96;98867.44;4896979;29;20260;-78
2021/12/02 01:07:45;;;;;;;2.38;0.77;;;;;;;-0.22;96.70;98869.47;4896828;29;20180;-78
2021/12/02 01:10:11;;;;;;;0.70;0.70;;;;;;;-0.16;96.03;98879.84;4880154;29;20205;-77
2021/12/02 01:12:36;;;;;;;2.50;0.85;;;;;;;-0.21;96.21;98873.84;4896849;29;20165;-77
2021/12/02 01:15:06;;;;;;;2.30;1.00;;;;;;;-0.19;96.28;98879.94;4895781;29;20241;-77
2021/12/02 01:17:31;;;;;;;1.00;0.80;;;;;;;-0.15;95.91;98896.50;4895478;29;20173;-78
2021/12/02 01:19:57;;;;;;;0.80;0.75;;;;;;;-0.13;95.23;98918.38;4880151;29;20207;-78
2021/12/02 01:22:26;;;;;;;2.35;1.00;;;;;;;-0.19;95.07;98913.28;4896590;29;20177;-78
2021/12/02 01:24:53;;;;;;;2.63;1.17;;;;;;;-0.19;95.70;98922.03;4895697;29;20176;-77
2021/12/02 01:27:21;;;;;;;1.85;0.75;;;;;;;-0.24;94.90;98929.16;4880105;29;20184;-77
2021/12/02 01:29:48;;;;;;;1.70;0.90;;;;;;;-0.27;94.73;98927.50;4897106;29;20222;-78
2021/12/02 01:32:15;;;;;;;2.10;0.80;;;;;;;-0.15;94.89;98941.25;4897088;29;20176;-78
2021/12/02 01:34:45;;;;;;;2.20;0.75;;;;;;;-0.06;95.77;98949.78;4897202;29;20613;-78
2021/12/02 01:37:11;;;;;;;2.53;0.80;;;;;;;-0.12;95.52;98965.72;4897418;29;20271;-78
2021/12/02 01:39:36;;;;;;;1.65;0.70;;;;;;;-0.15;94.63;98957.91;4897138;29;20292;-78
2021/12/02 01:42:02;;;;;;;1.48;0.80;;;;;;;-0.10;94.87;98974.44;4880457;29;20185;-78
2021/12/02 01:44:29;;;;;;;1.02;0.80;;;;;;;-0.10;94.92;98977.09;4897635;29;20181;-78
2021/12/02 01:46:58;;;;;;;1.50;0.70;;;;;;;-0.14;94.46;98991.22;4896413;29;20187;-78
2021/12/02 01:49:27;;;;;;;0.95;0.80;;;;;;;-0.12;94.08;98992.03;4897679;29;20351;-78
2021/12/02 01:55:17;;;;;;;2.58;0.88;;;;;;;-0.11;94.37;99008.69;4882475;29;20312;-79
2021/12/02 01:57:59;;;;;;;0.77;0.55;;;;;;;-0.10;94.06;99003.41;4876652;29;20177;-79
2021/12/02 02:00:28;;;;;;;1.45;0.68;;;;;;;-0.10;93.66;99011.31;5080862;23;20225;-79
2021/12/02 02:02:53;;;;;;;0.57;0.55;;;;;;;-0.17;93.90;99024.66;4901890;29;20177;-79
2021/12/02 02:05:19;;;;;;;2.20;0.55;;;;;;;-0.20;93.91;99030.84;4949505;23;20321;-78
2021/12/02 02:08:21;;;;;;;2.30;0.90;;;;;;;-0.11;94.64;99021.84;4884124;29;20247;-80
2021/12/02 02:10:47;;;;;;;2.72;0.80;;;;;;;-0.16;94.05;99032.50;4891943;29;20278;-80
2021/12/02 02:13:14;;;;;;;1.05;0.68;;;;;;;-0.11;94.55;99043.81;4904605;23;20261;-79
2021/12/02 02:15:48;;;;;;;3.28;1.17;;;;;;;-0.21;93.72;99058.06;4898066;29;20181;-79
2021/12/02 02:18:20;;;;;;;2.58;0.60;;;;;;;-0.13;93.71;99055.25;4878159;29;20197;-78
2021/12/02 02:21:02;;;;;;;1.60;0.80;;;;;;;-0.15;93.57;99051.78;4847760;29;20202;-78
2021/12/02 02:23:31;;;;;;;1.25;0.85;;;;;;;-0.09;94.22;99057.78;4862487;29;20175;-78
2021/12/02 02:25:57;;;;;;;1.00;0.50;;;;;;;-0.20;93.23;99051.88;4861854;29;20181;-79
2021/12/02 02:28:23;;;;;;;2.55;0.80;;;;;;;-0.05;93.66;99064.69;4862863;29;20170;-79
2021/12/02 02:30:49;;;;;;;1.35;0.95;;;;;;;-0.04;93.46;99060.31;4846307;29;20551;-79
2021/12/02 02:33:16;;;;;;;1.20;0.60;;;;;;;0.02;92.71;99075.94;4861866;29;20238;-78
2021/12/02 02:35:45;;;;;;;1.38;0.70;;;;;;;-0.02;92.93;99082.22;4845991;29;20170;-79
2021/12/02 02:38:11;;;;;;;1.30;0.90;;;;;;;0.01;93.60;99083.91;4846458;29;20193;-79
2021/12/02 02:40:39;;;;;;;1.13;0.63;;;;;;;-0.02;93.31;99092.75;4861734;29;20202;-79
2021/12/02 02:43:08;;;;;;;2.40;0.68;;;;;;;0.03;93.65;99090.00;4863400;29;20174;-79
2021/12/02 02:45:35;;;;;;;1.23;0.63;;;;;;;-0.01;93.76;99108.47;4863758;29;20194;-79
2021/12/02 02:48:01;;;;;;;3.80;0.70;;;;;;;-0.05;94.17;99105.94;4847359;29;20260;-79
2021/12/02 02:50:26;;;;;;;0.52;0.52;;;;;;;0.04;94.71;99107.50;4863201;29;20257;-79
2021/12/02 02:53:04;;;;;;;3.72;0.60;;;;;;;0.07;94.33;99108.31;4863418;29;20194;-79
2021/12/02 02:55:30;;;;;;;2.33;0.70;;;;;;;0.05;94.26;99104.00;4864422;29;20526;-78
2021/12/02 03:01:05;;;;;;;1.20;0.45;;;;;;;0.11;94.30;99116.97;4788665;29;20232;-82
2021/12/02 03:06:49;;;;;;;2.00;0.65;;;;;;;0.07;93.31;99128.53;4839201;29;20298;-79
2021/12/02 03:11:51;;;;;;;5.43;0.60;;;;;;;0.12;94.60;99130.13;4846624;29;20182;-78
2021/12/02 03:14:23;;;;;;;1.77;0.90;;;;;;;0.08;95.00;99136.34;4863961;29;20943;-79
2021/12/02 03:16:48;;;;;;;2.92;0.75;;;;;;;0.18;94.67;99147.56;4845865;29;20204;-78
2021/12/02 03:19:21;;;;;;;2.90;0.95;;;;;;;0.18;95.20;99137.03;4860009;29;20190;-78
2021/12/02 03:21:46;;;;;;;0.98;0.70;;;;;;;0.14;95.10;99156.44;4860314;29;20174;-78
2021/12/02 03:24:11;;;;;;;0.82;0.60;;;;;;;0.15;95.78;99153.78;4925641;24;20288;-80
2021/12/02 03:26:37;;;;;;;1.90;0.70;;;;;;;0.22;95.85;99162.41;4872630;29;20189;-79
2021/12/02 03:29:04;;;;;;;0.90;0.55;;;;;;;0.19;96.32;99158.03;4877865;29;20665;-80
2021/12/02 03:31:29;;;;;;;3.88;0.90;;;;;;;0.16;95.23;99147.59;4881485;29;20178;-80
2021/12/02 03:33:55;;;;;;;2.55;0.65;;;;;;;0.14;95.26;99165.19;4880011;29;20530;-79
2021/12/02 03:36:21;;;;;;;1.30;0.75;;;;;;;0.20;94.72;99172.97;4881158;29;20242;-79
2021/12/02 03:38:47;;;;;;;2.78;0.90;;;;;;;0.22;95.06;99165.03;4880163;29;20642;-79
2021/12/02 03:41:13;;;;;;;2.65;1.17;;;;;;;0.17;94.57;99182.69;4882169;29;20209;-79
2021/12/02 03:43:41;;;;;;;3.45;0.85;;;;;;;0.20;94.80;99183.50;5076849;23;20231;-80
2021/12/02 03:46:09;;;;;;;3.40;1.20;;;;;;;0.32;95.36;99178.84;4930136;29;20255;-80
2021/12/02 03:48:38;;;;;;;1.95;0.80;;;;;;;0.26;93.98;99187.72;4921297;29;20187;-80
2021/12/02 03:51:08;;;;;;;3.10;1.00;;;;;;;0.26;94.36;99189.50;4922352;29;20238;-80
2021/12/02 03:53:34;;;;;;;3.72;0.90;;;;;;;0.33;93.79;99194.63;4918398;29;20176;-79
2021/12/02 03:56:01;;;;;;;3.30;0.93;;;;;;;0.28;93.81;99196.47;4919287;29;20167;-79
2021/12/02 03:58:27;;;;;;;2.95;0.85;;;;;;;0.33;94.32;99209.56;4919131;29;20207;-80
2021/12/02 04:00:53;;;;;;;4.28;0.90;;;;;;;0.27;93.13;99204.44;4919474;29;20204;-80
2021/12/02 04:03:18;;;;;;;5.82;1.27;;;;;;;0.31;93.22;99211.38;4919122;29;20235;-80
2021/12/02 04:05:43;;;;;;;2.50;0.90;;;;;;;0.36;92.23;99214.75;4901824;29;20188;-81
2021/12/02 04:08:11;;;;;;;2.38;0.90;;;;;;;0.30;92.10;99220.16;4919753;29;20168;-81
2021/12/02 04:10:41;;;;;;;4.60;0.98;;;;;;;0.27;91.54;99218.47;4917570;29;20203;-80
2021/12/02 04:15:42;;;;;;;6.65;0.98;;;;;;;0.25;91.70;99235.19;4918812;29;20160;-81
2021/12/02 04:18:07;;;;;;;3.13;1.00;;;;;;;0.22;92.57;99228.25;4915935;29;20705;-81
2021/12/02 04:20:34;;;;;;;1.85;0.70;;;;;;;0.30;91.88;99238.59;4861567;29;20301;-80
2021/12/02 04:22:59;;;;;;;1.73;0.70;;;;;;;0.31;92.15;99238.56;4886801;29;20665;-81
2021/12/02 04:25:27;;;;;;;4.45;1.00;;;;;;;0.35;91.88;99252.50;4914323;29;20180;-80
2021/12/02 04:27:53;;;;;;;1.58;0.90;;;;;;;0.27;91.23;99263.25;4903054;29;20754;-80
2021/12/02 04:30:25;;;;;;;5.03;1.02;;;;;;;0.33;90.74;99262.25;4881397;29;20204;-81
2021/12/02 04:32:51;;;;;;;4.13;0.93;;;;;;;0.35;90.84;99263.94;4899132;29;20246;-81
2021/12/02 04:35:17;;;;;;;4.82;0.85;;;;;;;0.30;91.01;99271.06;4898823;29;20192;-81
2021/12/02 04:37:44;;;;;;;4.18;0.98;;;;;;;0.39;91.12;99278.78;4896991;29;20177;-81
2021/12/02 04:40:11;;;;;;;3.67;1.00;;;;;;;0.36;90.98;99278.84;4898393;29;20220;-80
2021/12/02 04:42:38;;;;;;;6.13;1.15;;;;;;;0.39;90.89;99280.53;4881768;29;20669;-80
2021/12/02 04:45:04;;;;;;;2.72;0.90;;;;;;;0.38;90.27;99277.03;4899065;29;20188;-81
2021/12/02 04:47:30;;;;;;;3.85;1.00;;;;;;;0.41;89.08;99282.22;4881610;29;20521;-81
2021/12/02 04:49:55;;;;;;;2.30;1.00;;;;;;;0.39;89.25;99281.41;4865803;29;20317;-80
2021/12/02 04:52:21;;;;;;;3.72;0.90;;;;;;;0.39;89.04;99291.06;4898268;29;20169;-81
2021/12/02 04:54:46;;;;;;;4.22;1.30;;;;;;;0.32;89.28;99292.09;4898203;29;20187;-81
2021/12/02 04:57:12;;;;;;;3.75;1.08;;;;;;;0.32;88.08;99300.88;4896239;29;20168;-80
2021/12/02 04:59:37;;;;;;;2.10;1.20;;;;;;;0.32;88.42;99302.66;4898634;29;20232;-81
2021/12/02 05:02:03;;;;;;;3.40;1.13;;;;;;;0.37;88.87;99313.94;4897528;29;20181;-80
2021/12/02 05:04:28;;;;;;;5.22;1.17;;;;;;;0.34;88.75;99316.66;4881945;29;20172;-80
2021/12/02 05:06:54;;;;;;;6.00;1.63;;;;;;;0.38;89.41;99308.66;4880901;29;20207;-80
2021/12/02 05:09:19;;;;;;;6.85;1.10;;;;;;;0.34;89.21;99312.25;4896905;29;20222;-81
2021/12/02 05:11:44;;;;;;;4.65;1.40;;;;;;;0.37;88.69;99325.38;4898435;29;20485;-81
2021/12/02 05:14:10;;;;;;;6.60;1.33;;;;;;;0.30;88.63;99333.41;4881247;29;20193;-80
2021/12/02 05:16:37;;;;;;;4.07;1.25;;;;;;;0.32;88.80;99336.88;4880606;29;20192;-82
2021/12/02 05:19:03;;;;;;;1.67;1.00;;;;;;;0.25;88.70;99340.56;4898197;29;20192;-81
2021/12/02 05:21:29;;;;;;;11.32;1.75;;;;;;;0.31;89.65;99346.56;4898046;29;20196;-81
2021/12/02 05:23:55;;;;;;;6.05;1.30;;;;;;;0.20;89.45;99351.19;4881586;29;20179;-81
2021/12/02 05:26:25;;;;;;;3.90;1.05;;;;;;;0.24;89.67;99358.13;4882977;29;20626;-80
2021/12/02 05:28:52;;;;;;;7.68;1.20;;;;;;;0.24;89.68;99354.59;4899128;29;20232;-81
2021/12/02 05:31:18;;;;;;;8.32;1.80;;;;;;;0.17;90.12;99361.75;4898675;29;20634;-83
2021/12/02 05:33:43;;;;;;;10.18;1.48;;;;;;;0.22;90.33;99356.41;4898986;29;20192;-80
2021/12/02 05:36:09;;;;;;;8.02;1.50;;;;;;;0.37;90.17;99369.25;4899084;29;20173;-80
2021/12/02 05:38:35;;;;;;;8.98;1.45;;;;;;;0.27;90.52;99371.22;4882105;29;20188;-80
2021/12/02 05:41:01;;;;;;;6.60;1.23;;;;;;;0.25;90.46;99382.69;4953536;24;20245;-81
2021/12/02 05:43:26;;;;;;;7.03;1.60;;;;;;;0.15;90.03;99382.88;4861445;29;20344;-82
2021/12/02 05:45:52;;;;;;;5.30;1.23;;;;;;;0.13;90.48;99383.78;4862264;29;20169;-81
2021/12/02 05:48:18;;;;;;;5.95;1.40;;;;;;;0.11;89.29;99386.47;4878249;29;20196;-81
2021/12/02 05:50:44;;;;;;;9.38;1.23;;;;;;;0.20;90.37;99385.44;4878436;29;20189;-81
2021/12/02 05:53:09;;;;;;;5.57;1.13;;;;;;;0.12;90.07;99397.88;4861550;29;20189;-82
2021/12/02 05:55:35;;;;;;;8.35;1.40;;;;;;;0.14;89.61;99399.56;4878731;29;20251;-81
2021/12/02 05:58:00;;;;;;;3.67;1.10;;;;;;;0.06;89.60;99397.97;4861351;29;20256;-81
2021/12/02 06:00:26;;;;;;;5.28;1.30;;;;;;;0.07;89.25;99405.84;4861472;29;20620;-82
2021/12/02 06:02:52;;;;;;;6.53;1.40;;;;;;;0.16;89.87;99400.41;4878292;29;20189;-82
2021/12/02 06:10:42;;;;;;;6.75;1.42;;;;;;;0.27;90.50;99423.06;5206022;23;20247;-80
2021/12/02 06:13:07;;;;;;;5.78;1.30;;;;;;;0.21;90.19;99437.19;4897114;29;20228;-81
2021/12/02 06:15:33;;;;;;;7.85;1.52;;;;;;;0.24;90.38;99442.41;4871290;29;20269;-80
2021/12/02 06:17:58;;;;;;;5.20;1.50;;;;;;;0.16;88.94;99441.69;4881496;29;20706;-80
2021/12/02 06:20:24;;;;;;;4.43;1.23;;;;;;;0.20;88.46;99452.13;5069187;23;20231;-81
2021/12/02 06:22:49;;;;;;;2.70;1.27;;;;;;;0.19;88.79;99433.72;4888435;29;20509;-81
2021/12/02 06:27:53;;;;;;;3.25;1.02;;;;;;;0.30;88.70;99442.28;4965976;23;20225;-81
2021/12/02 06:30:21;;;;;;;4.10;1.38;;;;;;;0.29;88.50;99452.88;4850802;29;20256;-81
2021/12/02 06:32:47;;;;;;;10.32;1.40;;;;;;;0.29;88.51;99463.41;4866964;29;20198;-82
2021/12/02 06:35:12;;;;;;;3.50;1.15;;;;;;;0.18;88.45;99464.47;4842125;29;20261;-81
2021/12/02 06:37:38;;;;;;;2.78;1.67;;;;;;;0.14;88.59;99477.72;4842504;29;20202;-81
2021/12/02 06:40:06;;;;;;;3.92;1.30;;;;;;;0.16;88.61;99484.69;4859092;29;20711;-81
2021/12/02 06:42:32;;;;;;;6.40;1.45;;;;;;;0.11;88.66;99476.00;4858931;29;20206;-81
2021/12/02 06:44:58;;;;;;;6.05;1.20;;;;;;;0.16;88.53;99489.09;4858406;29;20572;-81
2021/12/02 06:47:45;;;;;;;10.27;1.83;;;;;;;0.19;88.52;99495.16;4858738;29;20184;-81
2021/12/02 06:50:18;;;;;;;5.70;1.63;;;;;;;0.17;88.74;99498.72;4858002;29;20214;-82
2021/12/02 06:52:44;;;;;;;7.88;1.40;;;;;;;0.12;88.77;99508.47;4860015;29;20553;-82
2021/12/02 06:55:11;;;;;;;4.38;1.30;;;;;;;0.18;88.97;99511.00;4843460;29;20186;-81
2021/12/02 06:57:37;;;;;;;6.22;1.30;;;;;;;0.23;88.35;99514.41;4862567;29;20178;-81
2021/12/02 07:00:08;;;;;;;7.45;1.63;;;;;;;0.14;88.32;99512.81;4862493;29;20859;-80
2021/12/02 07:02:37;;;;;;;9.38;1.60;;;;;;;0.24;88.90;99525.81;4847579;29;20159;-79
2021/12/02 07:05:04;;;;;;;5.63;1.17;;;;;;;0.25;88.44;99538.09;4936305;23;20239;-80
2021/12/02 07:07:36;;;;;;;7.78;1.50;;;;;;;0.16;88.09;99541.75;4854495;29;20189;-81
2021/12/02 07:10:11;;;;;;;7.82;1.58;;;;;;;0.22;88.58;99554.84;4869879;29;20312;-81
2021/12/02 07:12:39;;;;;;;6.03;1.83;;;;;;;0.25;88.41;99561.81;4881332;29;20231;-81
2021/12/02 07:15:11;;;;;;;6.88;1.45;;;;;;;0.23;88.55;99564.47;4881274;29;20194;-81
2021/12/02 07:17:37;;;;;;;11.27;1.90;;;;;;;0.22;88.48;99569.75;4863040;29;20193;-81
2021/12/02 07:20:03;;;;;;;5.40;1.60;;;;;;;0.23;88.14;99564.47;4862396;29;20210;-81
2021/12/02 07:22:29;;;;;;;6.70;1.55;;;;;;;0.23;87.24;99572.38;4847222;29;20178;-81
2021/12/02 07:24:54;;;;;;;8.70;1.70;;;;;;;0.19;87.03;99575.94;4860412;29;20201;-81
2021/12/02 07:27:20;;;;;;;4.15;1.58;;;;;;;0.30;87.19;99581.91;4834761;29;20194;-80
2021/12/02 07:29:46;;;;;;;7.55;1.60;;;;;;;0.27;86.25;99581.97;4860739;29;20193;-80
2021/12/02 07:32:12;;;;;;;3.63;1.20;;;;;;;0.35;85.62;99579.19;4842580;29;20191;-81
2021/12/02 07:34:43;;;;;;;5.45;1.00;;;;;;;0.37;86.20;99585.28;4859213;29;20189;-81
2021/12/02 07:37:13;;;;;;;4.72;1.25;;;;;;;0.36;85.94;99594.09;4849803;29;20212;-81
2021/12/02 07:39:39;;;;;;;3.65;1.30;;;;;;;0.38;85.06;99602.84;4830016;29;20217;-81
2021/12/02 07:42:04;;;;;;;4.97;1.90;;;;;;;0.32;85.54;99602.97;4845561;29;20190;-81
2021/12/02 07:44:30;;;;;;;7.05;1.75;;;;;;;0.28;86.33;99612.66;4860796;29;20182;-81
2021/12/02 07:46:58;;;;;;;3.67;1.33;;;;;;;0.31;85.42;99615.25;4860200;29;20560;-81
2021/12/02 07:49:23;;;;;;;3.53;1.50;;;;;;;0.29;85.94;99622.31;4861181;29;20233;-82
2021/12/02 07:51:50;;;;;;;4.78;1.63;;;;;;;0.23;86.14;99622.41;4844158;29;20216;-80
2021/12/02 07:54:17;;;;;;;5.32;1.23;;;;;;;0.30;86.09;99628.44;4862878;29;20201;-81
2021/12/02 07:56:47;;;;;;;8.90;1.58;;;;;;;0.33;84.79;99638.97;4852097;29;20273;-81
2021/12/02 07:59:17;;;;;;;5.70;1.33;;;;;;;0.36;85.32;99644.16;4860784;29;20199;-81
2021/12/02 08:01:44;;;;;;;3.58;1.35;;;;;;;0.31;84.73;99638.97;4859479;29;20186;-81
2021/12/02 08:04:09;;;;;;;6.82;1.40;;;;;;;0.38;84.16;99652.91;4844273;29;20222;-81
2021/12/02 08:06:35;;;;;;;4.13;1.60;;;;;;;0.38;84.39;99648.50;4826590;29;20198;-81
2021/12/02 08:09:00;;;;;;;3.00;1.58;;;;;;;0.45;84.91;99665.09;4843042;29;20593;-81
2021/12/02 08:11:26;;;;;;;6.22;1.60;;;;;;;0.39;85.02;99652.91;4826523;29;20185;-82
2021/12/02 08:13:54;;;;;;;5.20;1.40;;;;;;;0.34;84.58;99662.63;4845540;29;20171;-80
2021/12/02 08:16:20;;;;;;;3.95;1.50;;;;;;;0.41;84.64;99668.66;4845918;29;20286;-80
2021/12/02 08:18:45;;;;;;;8.02;1.40;;;;;;;0.42;85.10;99673.06;4847120;29;20601;-80
2021/12/02 08:21:10;;;;;;;6.70;1.75;;;;;;;0.43;85.33;99680.06;4830909;29;20213;-80
2021/12/02 08:23:36;;;;;;;8.85;1.77;;;;;;;0.36;84.69;99692.44;4848487;29;20649;-80
2021/12/02 08:26:02;;;;;;;7.25;1.73;;;;;;;0.48;85.11;99698.41;4832567;29;20291;-80
2021/12/02 08:28:29;;;;;;;6.40;1.65;;;;;;;0.43;84.29;99701.13;4847582;29;20195;-80
2021/12/02 08:30:57;;;;;;;7.13;2.05;;;;;;;0.50;85.55;99709.81;4850391;29;20556;-80
2021/12/02 08:33:22;;;;;;;6.25;1.30;;;;;;;0.47;85.96;99712.50;4849802;29;20738;-82
2021/12/02 08:35:48;;;;;;;4.88;1.40;;;;;;;0.46;86.15;99713.38;4830873;29;20200;-82
2021/12/02 08:38:16;;;;;;;5.50;1.40;;;;;;;0.52;84.98;99713.31;4845297;29;20162;-83
2021/12/02 08:40:44;;;;;;;2.65;1.20;;;;;;;0.63;85.17;99721.91;4864086;29;20638;-81
2021/12/02 08:43:13;;;;;;;5.30;1.35;;;;;;;0.55;85.66;99734.34;4889187;29;20217;-81
2021/12/02 08:45:41;;;;;;;4.63;1.50;;;;;;;0.53;85.29;99741.41;4886260;29;20209;-80
2021/12/02 08:48:08;;;;;;;5.90;1.38;;;;;;;0.62;84.52;99738.63;4885496;29;20204;-80
2021/12/02 08:50:35;;;;;;;3.60;1.05;;;;;;;0.64;84.94;99751.78;4855963;29;20224;-80
2021/12/02 08:53:01;;;;;;;5.07;1.30;;;;;;;0.63;84.26;99753.53;4861450;29;20197;-81
2021/12/02 08:55:30;;;;;;;4.95;1.35;;;;;;;0.67;84.80;99755.22;4853964;29;20204;-81
2021/12/02 08:57:55;;;;;;;3.45;1.52;;;;;;;0.69;85.55;99766.63;4865650;29;20281;-80
2021/12/02 09:00:26;;;;;;;7.78;1.67;;;;;;;0.70;84.83;99760.47;4865837;29;20233;-80
2021/12/02 09:02:53;;;;;;;6.30;1.27;;;;;;;0.78;84.43;99765.63;4847997;29;20537;-81
2021/12/02 09:05:19;;;;;;;8.43;1.65;;;;;;;0.77;84.62;99774.44;4862984;29;20686;-80
2021/12/02 09:07:44;;;;;;;7.28;1.77;;;;;;;0.77;84.46;99775.28;4863966;29;20170;-81
2021/12/02 09:10:10;;;;;;;8.15;1.73;;;;;;;0.78;83.72;99776.16;4863207;29;20209;-81
2021/12/02 09:12:36;;;;;;;5.30;1.48;;;;;;;0.80;84.31;99793.69;4864242;29;20181;-80
2021/12/02 09:15:04;;;;;;;6.00;1.23;;;;;;;0.78;84.50;99784.94;4863969;29;20180;-80
2021/12/02 09:17:29;;;;;;;4.72;1.17;;;;;;;0.75;84.30;99802.59;4862782;29;20194;-82
2021/12/02 09:19:55;;;;;;;6.13;1.50;;;;;;;0.87;84.09;99804.16;4860574;29;20194;-83
2021/12/02 09:22:21;;;;;;;5.65;1.63;;;;;;;0.85;83.45;99817.34;4860286;29;20242;-83
2021/12/02 09:24:46;;;;;;;5.07;1.60;;;;;;;0.84;83.65;99801.56;4859132;29;20309;-82
2021/12/02 09:27:12;;;;;;;5.32;1.23;;;;;;;0.88;82.89;99813.81;4841707;29;20193;-82
2021/12/02 09:29:37;;;;;;;3.22;1.38;;;;;;;0.88;83.13;99803.28;4860431;29;20201;-81
2021/12/02 09:32:03;;;;;;;5.20;1.38;;;;;;;0.99;84.46;99815.38;4867147;29;20186;-82
2021/12/02 09:34:29;;;;;;;2.72;1.20;;;;;;;0.95;83.94;99818.97;4880340;29;20185;-82
2021/12/02 09:36:56;;;;;;;4.45;1.45;;;;;;;0.90;82.87;99819.94;4878102;29;20217;-81
2021/12/02 09:39:21;;;;;;;5.25;1.40;;;;;;;0.87;82.72;99828.75;4861911;29;20205;-82
2021/12/02 09:41:47;;;;;;;4.38;1.25;;;;;;;1.05;82.66;99846.09;4877667;29;20174;-83
2021/12/02 09:44:14;;;;;;;6.20;1.70;;;;;;;1.05;83.08;99835.53;4879627;29;20177;-83
2021/12/02 09:46:41;;;;;;;7.63;1.35;;;;;;;1.01;82.89;99839.13;4878339;29;20196;-83
2021/12/02 09:49:12;;;;;;;5.07;1.75;;;;;;;1.13;84.17;99853.88;4862245;29;20189;-84
2021/12/02 09:54:16;;;;;;;4.07;1.23;;;;;;;1.15;84.54;99842.38;4878506;29;20264;-82
2021/12/02 09:56:45;;;;;;;4.90;1.30;;;;;;;1.06;83.26;99853.09;4879278;29;20188;-81
2021/12/02 09:59:22;;;;;;;6.65;1.60;;;;;;;1.13;83.64;99864.41;4878789;29;20221;-81
2021/12/02 10:01:51;;;;;;;6.47;1.30;;;;;;;1.14;83.44;99867.03;4880669;29;20241;-82
2021/12/02 10:04:20;;;;;;;3.65;1.40;;;;;;;1.06;82.90;99871.56;4867935;29;20220;-80
2021/12/02 10:06:46;;;;;;;5.90;1.50;;;;;;;1.24;83.69;99865.97;4870327;29;20213;-80
2021/12/02 10:09:21;;;;;;;7.35;1.60;;;;;;;1.30;83.79;99874.72;4872336;29;20215;-80
2021/12/02 10:11:58;;;;;;;6.32;1.10;;;;;;;1.27;83.20;99890.56;4871917;29;20177;-80
2021/12/02 10:14:32;;;;;;;4.05;1.27;;;;;;;1.31;83.07;99877.34;4886380;29;20231;-80
2021/12/02 10:17:07;;;;;;;6.55;1.50;;;;;;;1.30;82.58;99885.28;4888094;29;20187;-80
2021/12/02 10:19:32;;;;;;;8.55;1.60;;;;;;;1.37;82.31;99893.06;4870006;29;20196;-78
2021/12/02 10:22:08;;;;;;;4.47;1.13;;;;;;;1.59;82.21;99887.44;4883883;29;20196;-79
2021/12/02 10:24:41;;;;;;;7.07;1.30;;;;;;;1.53;82.49;99891.06;4888489;29;20169;-79
2021/12/02 10:27:07;;;;;;;7.20;1.50;;;;;;;1.50;81.89;99898.16;4888972;29;20197;-79
2021/12/02 10:29:38;;;;;;;5.30;1.45;;;;;;;1.52;82.96;99897.22;4872820;29;20198;-79
2021/12/02 10:32:16;;;;;;;4.70;1.40;;;;;;;1.49;82.05;99905.19;4889473;29;20196;-79
2021/12/02 10:34:52;;;;;;;6.45;1.33;;;;;;;1.44;80.99;99907.03;4873404;29;20662;-79
2021/12/02 10:37:19;;;;;;;6.05;1.42;;;;;;;1.47;80.04;99906.13;4893860;29;20215;-79
2021/12/02 10:40:03;;;;;;;4.78;1.48;;;;;;;1.65;80.26;99909.31;4877955;29;20205;-79
2021/12/02 10:42:31;;;;;;;3.92;1.60;;;;;;;1.55;80.54;99906.84;4894515;29;20197;-79
2021/12/02 10:45:00;;;;;;;2.65;1.15;;;;;;;1.55;81.29;99910.38;4890889;29;20173;-79
2021/12/02 10:47:26;;;;;;;4.80;1.33;;;;;;;1.44;80.93;99907.03;4889182;29;20183;-79
2021/12/02 10:49:55;;;;;;;3.45;1.35;;;;;;;1.47;80.81;99916.69;4874373;29;20202;-79
2021/12/02 10:52:21;;;;;;;5.07;1.45;;;;;;;1.41;80.11;99921.16;4873076;29;20174;-79
2021/12/02 10:54:51;;;;;;;3.75;1.75;;;;;;;1.43;80.69;99929.91;4889125;29;20192;-79
2021/12/02 10:57:22;;;;;;;6.18;1.58;;;;;;;1.51;81.45;99943.00;4871623;29;20182;-80
2021/12/02 10:59:50;;;;;;;4.15;1.70;;;;;;;1.66;81.53;99949.78;4887752;29;20212;-79
2021/12/02 11:02:36;;;;;;;4.25;1.20;;;;;;;1.54;80.91;99952.63;4871849;29;20181;-79
2021/12/02 11:05:25;;;;;;;3.85;1.20;;;;;;;1.57;80.46;99950.81;4888725;29;20194;-80
2021/12/02 11:08:04;;;;;;;3.28;1.52;;;;;;;1.51;80.89;99964.13;4870828;29;20173;-80
2021/12/02 11:10:32;;;;;;;4.00;1.55;;;;;;;1.56;80.69;99957.00;4888210;29;20237;-79
2021/12/02 11:12:58;;;;;;;2.95;1.10;;;;;;;1.60;80.49;99966.63;4889290;29;20585;-80
2021/12/02 11:15:27;;;;;;;2.80;1.20;;;;;;;1.48;80.18;99965.94;4888972;29;20182;-80
2021/12/02 11:18:14;;;;;;;3.55;1.27;;;;;;;1.53;80.90;99975.53;4854824;29;20261;-80
2021/12/02 11:20:39;;;;;;;7.00;1.23;;;;;;;1.53;80.03;99964.97;4886328;29;20252;-80
2021/12/02 11:23:07;;;;;;;5.18;1.10;;;;;;;1.52;81.13;99963.22;4888989;29;20169;-80
2021/12/02 11:25:35;;;;;;;5.47;1.52;;;;;;;1.51;80.36;99965.88;4888005;29;20658;-80
2021/12/02 11:28:09;;;;;;;5.07;1.10;;;;;;;1.61;80.87;99967.47;4885543;29;20189;-80
2021/12/02 11:30:37;;;;;;;4.97;1.40;;;;;;;1.55;80.70;99970.22;4866705;29;20200;-81
2021/12/02 11:33:05;;;;;;;3.70;1.25;;;;;;;1.69;80.91;99967.38;4882962;29;20177;-81
2021/12/02 11:35:36;;;;;;;4.85;1.38;;;;;;;1.53;81.11;99972.00;4866656;29;20185;-81
2021/12/02 11:38:04;;;;;;;7.45;1.15;;;;;;;1.57;80.22;99979.84;4881417;29;20183;-81
2021/12/02 11:40:41;;;;;;;7.45;1.30;;;;;;;1.55;80.61;99984.31;4849715;29;20265;-81
2021/12/02 11:43:10;;;;;;;6.93;1.70;;;;;;;1.53;80.18;99991.38;4866158;29;20281;-81
2021/12/02 11:45:43;;;;;;;3.38;1.45;;;;;;;1.62;80.78;99999.16;4883022;29;20173;-81
2021/12/02 11:48:10;;;;;;;5.10;1.38;;;;;;;1.54;80.71;99993.09;4865989;29;20241;-81
2021/12/02 11:50:35;;;;;;;4.22;1.30;;;;;;;1.56;80.75;100003.66;4883104;29;20185;-81
2021/12/02 11:53:01;;;;;;;6.57;1.65;;;;;;;1.62;81.37;99999.16;4884434;29;20185;-81
2021/12/02 11:55:33;;;;;;;7.78;1.30;;;;;;;1.71;81.31;100010.47;4881729;29;20185;-81
2021/12/02 11:57:59;;;;;;;2.92;1.13;;;;;;;1.72;81.08;99999.00;4883403;29;20201;-81
2021/12/02 12:00:28;;;;;;;7.47;1.50;;;;;;;1.74;81.05;100005.13;4882424;29;20224;-81
2021/12/02 12:02:55;;;;;;;5.50;1.30;;;;;;;1.67;80.98;100014.06;4866507;29;20202;-81
2021/12/02 12:05:25;;;;;;;3.85;1.30;;;;;;;1.68;80.77;100029.84;4882065;29;20514;-81
2021/12/02 12:07:51;;;;;;;5.65;1.48;;;;;;;1.81;80.89;100023.47;4865603;29;20273;-81
2021/12/02 12:10:22;;;;;;;6.07;1.70;;;;;;;1.65;81.00;100032.56;4865781;29;20621;-80
2021/12/02 12:12:49;;;;;;;6.68;1.67;;;;;;;1.55;81.39;100036.22;4881688;29;20169;-81